Archival Weather

Alykel

Alykel, Russia (UOOO)

Report from: Tuesday, November 21, 2023 9:00 AM UTC
Current time: Friday, July 19, 2024 3:04 AM UTC

Current weather – Weather history – Daily summaries
Weather forecast

Present weatherLight snow, drifting snow
Temperature-26.0°C (-14.8°F)
Wind chill-37.4°C (-35.4°F)
Dew point-29.0°C (-20.2°F)
Winds 9.7 kts (5 m/s, 11.2 mph) South (190°)
Visibility3.1 mi. (5 km)
Clouds Ceiling: Overcast 2,000 ft. (610 m)
Altimeter30.21 in.Hg (1023 mB)
Precip. events QF 8:31 PM
Relative humidity76 %
Density altitude-5,653 ft. (-1,723 m)
Remarks No significant changes expected in the next two hours
Flight conditions Marginal Visual Meteorological Conditions
Raw dataUOOO 210900Z 19005MPS 5000 -SN DRSN OVC020 M26/M29 Q1023 R19/35//60 NOSIG RMK QFE751/1001
An error has occurred. This application may no longer respond until reloaded. Reload 🗙